createdAt,value
2022-10-13T00:01:41.106Z,53.70
2022-10-13T00:04:30.471Z,53.70
2022-10-13T00:07:19.800Z,53.90
2022-10-13T00:10:10.034Z,54.10
2022-10-13T00:13:00.744Z,54.40
2022-10-13T00:15:50.548Z,54.50
2022-10-13T00:18:40.363Z,54.60
2022-10-13T00:21:29.943Z,54.70
2022-10-13T00:24:19.264Z,54.90
2022-10-13T00:27:08.596Z,54.90
2022-10-13T00:30:00.329Z,54.80
2022-10-13T00:32:49.720Z,54.80
2022-10-13T00:35:43.210Z,54.60
2022-10-13T00:38:33.499Z,54.70
2022-10-13T00:41:23.235Z,54.60
2022-10-13T00:45:12.714Z,54.50
2022-10-13T00:48:04.958Z,55.40
2022-10-13T00:50:55.353Z,54.80
2022-10-13T00:53:47.532Z,55.00
2022-10-13T00:56:40.030Z,55.20
2022-10-13T00:59:30.226Z,55.30
2022-10-13T01:02:19.846Z,55.30
2022-10-13T01:05:13.678Z,55.10
2022-10-13T01:08:03.778Z,55.30
2022-10-13T01:11:07.118Z,55.20
2022-10-13T01:14:10.411Z,55.60
2022-10-13T01:17:07.644Z,55.60
2022-10-13T01:20:46.258Z,55.60
2022-10-13T01:24:25.518Z,56.10
2022-10-13T01:28:02.151Z,56.10
2022-10-13T01:30:59.989Z,56.00
2022-10-13T01:33:58.428Z,55.80
2022-10-13T01:37:02.911Z,56.00
2022-10-13T01:39:58.960Z,56.10
2022-10-13T01:42:56.423Z,56.10
2022-10-13T01:45:54.215Z,56.10
2022-10-13T01:48:46.037Z,56.00
2022-10-13T01:51:36.514Z,55.70
2022-10-13T01:54:25.918Z,55.70
2022-10-13T01:57:32.588Z,55.80
2022-10-13T02:00:24.073Z,56.60
2022-10-13T02:03:23.931Z,56.10
2022-10-13T02:06:22.802Z,56.30
2022-10-13T02:09:20.621Z,56.40
2022-10-13T02:12:20.018Z,56.30
2022-10-13T02:15:13.671Z,56.20
2022-10-13T02:18:03.921Z,56.10
2022-10-13T02:20:55.689Z,56.00
2022-10-13T02:23:45.332Z,56.30
2022-10-13T02:26:36.615Z,56.40
2022-10-13T02:29:28.619Z,56.50
2022-10-13T02:32:18.078Z,56.50
2022-10-13T02:35:08.846Z,56.50
2022-10-13T02:37:59.737Z,56.50
2022-10-13T02:40:49.184Z,56.60
2022-10-13T02:43:38.791Z,56.60
2022-10-13T02:46:28.260Z,56.80
2022-10-13T02:49:17.634Z,56.90
2022-10-13T02:52:06.932Z,57.00
2022-10-13T02:54:57.675Z,57.00
2022-10-13T02:57:47.227Z,57.20
2022-10-13T03:00:38.462Z,57.20
2022-10-13T03:03:27.941Z,57.20
2022-10-13T03:06:17.282Z,57.20
2022-10-13T03:09:06.704Z,57.30
2022-10-13T03:11:57.630Z,57.20
2022-10-13T03:14:46.904Z,57.40
2022-10-13T03:17:36.333Z,57.50
2022-10-13T03:20:25.700Z,57.40
2022-10-13T03:23:14.992Z,57.40
2022-10-13T03:26:04.866Z,57.30
2022-10-13T03:28:55.573Z,57.30
2022-10-13T03:31:45.331Z,57.40
2022-10-13T03:34:34.628Z,57.40
2022-10-13T03:37:23.943Z,57.40
2022-10-13T03:40:13.968Z,57.50
2022-10-13T03:43:03.278Z,57.60
2022-10-13T03:46:01.566Z,57.50
2022-10-13T03:48:50.943Z,57.90
2022-10-13T03:51:40.576Z,57.60
2022-10-13T03:54:29.902Z,57.70
2022-10-13T03:57:19.888Z,57.80
2022-10-13T04:00:11.118Z,57.90
2022-10-13T04:03:22.100Z,57.90
2022-10-13T04:06:11.620Z,57.90
2022-10-13T04:09:01.058Z,58.10
2022-10-13T04:11:52.373Z,58.30
2022-10-13T04:14:41.793Z,58.40
2022-10-13T04:17:31.245Z,58.50
2022-10-13T04:20:22.001Z,58.50
2022-10-13T04:23:11.335Z,58.70
2022-10-13T04:26:07.899Z,58.70
2022-10-13T04:28:57.685Z,58.90
2022-10-13T04:31:46.954Z,58.90
2022-10-13T04:34:36.509Z,59.10
2022-10-13T04:37:27.346Z,59.20
2022-10-13T04:40:16.878Z,59.40
2022-10-13T04:43:06.528Z,59.40
2022-10-13T04:46:01.687Z,59.60
2022-10-13T04:48:51.605Z,59.60
2022-10-13T04:51:44.171Z,59.60
2022-10-13T04:54:34.965Z,59.40
2022-10-13T04:57:24.254Z,59.30
2022-10-13T05:00:15.047Z,59.20
2022-10-13T05:03:04.376Z,59.30
2022-10-13T05:05:54.435Z,59.10
2022-10-13T05:08:44.144Z,59.10
2022-10-13T05:11:37.918Z,59.00
2022-10-13T05:14:27.366Z,58.90
2022-10-13T05:17:16.739Z,58.90
2022-10-13T05:20:06.853Z,59.00
2022-10-13T05:22:56.539Z,58.80
2022-10-13T05:25:45.886Z,58.90
2022-10-13T05:28:38.958Z,58.80
2022-10-13T05:31:30.685Z,59.00
2022-10-13T05:34:21.676Z,58.90
2022-10-13T05:37:11.028Z,58.80
2022-10-13T05:40:00.398Z,58.90
2022-10-13T05:42:51.147Z,59.00
2022-10-13T05:45:43.373Z,59.10
2022-10-13T05:48:33.558Z,59.10
2022-10-13T05:51:27.416Z,59.10
2022-10-13T05:54:23.047Z,59.00
2022-10-13T05:57:15.652Z,59.20
2022-10-13T06:00:09.720Z,59.20
2022-10-13T06:03:09.346Z,59.30
2022-10-13T06:05:58.803Z,59.40
2022-10-13T06:08:48.327Z,59.30
2022-10-13T06:11:37.905Z,59.40
2022-10-13T06:14:27.435Z,60.30
2022-10-13T06:17:16.804Z,59.70
2022-10-13T06:20:11.289Z,60.10
2022-10-13T06:23:00.846Z,61.10
2022-10-13T06:25:50.336Z,62.30
2022-10-13T06:28:39.885Z,64.00
2022-10-13T06:31:29.533Z,65.00
2022-10-13T06:34:18.825Z,65.90
2022-10-13T06:37:09.781Z,66.40
2022-10-13T06:39:59.164Z,66.80
2022-10-13T06:42:52.071Z,66.20
2022-10-13T06:45:44.791Z,65.30
2022-10-13T06:48:34.180Z,64.40
2022-10-13T06:51:23.541Z,63.70
2022-10-13T06:54:14.228Z,63.20
2022-10-13T06:57:03.576Z,62.80
2022-10-13T06:59:53.142Z,62.80
2022-10-13T07:02:42.492Z,63.10
2022-10-13T07:05:32.632Z,63.40
2022-10-13T07:08:22.336Z,63.50
2022-10-13T07:11:16.685Z,63.50
2022-10-13T07:14:10.998Z,63.40
2022-10-13T07:17:00.699Z,63.20
2022-10-13T07:19:50.158Z,63.10
2022-10-13T07:22:39.571Z,63.30
2022-10-13T07:25:29.749Z,63.80
2022-10-13T07:28:20.823Z,65.20
2022-10-13T07:31:13.618Z,66.10
2022-10-13T07:34:04.829Z,67.30
2022-10-13T07:36:54.321Z,68.20
2022-10-13T07:39:43.651Z,68.20
2022-10-13T07:42:33.606Z,66.70
2022-10-13T07:45:24.369Z,65.60
2022-10-13T07:48:13.754Z,65.60
2022-10-13T07:51:07.297Z,66.20
2022-10-13T07:53:56.619Z,66.80
2022-10-13T07:56:46.008Z,68.10
2022-10-13T07:59:35.480Z,68.30
2022-10-13T08:02:26.310Z,68.10
2022-10-13T08:05:15.849Z,67.50
2022-10-13T08:08:05.169Z,67.20
2022-10-13T08:10:54.996Z,66.90
2022-10-13T08:13:49.913Z,66.00
2022-10-13T08:16:48.620Z,65.20
2022-10-13T08:19:42.044Z,65.00
2022-10-13T08:22:31.339Z,64.30
2022-10-13T08:25:20.667Z,65.10
2022-10-13T08:28:19.970Z,63.90
2022-10-13T08:31:09.686Z,62.50
2022-10-13T08:33:59.297Z,62.70
2022-10-13T08:36:52.968Z,61.80
2022-10-13T08:39:42.985Z,61.00
2022-10-13T08:42:32.362Z,60.50
2022-10-13T08:45:40.991Z,60.00
2022-10-13T08:48:36.264Z,59.50
2022-10-13T08:51:25.616Z,59.40
2022-10-13T08:54:19.177Z,59.70
2022-10-13T08:57:10.505Z,58.80
2022-10-13T09:00:00.097Z,58.90
2022-10-13T09:02:52.842Z,58.90
2022-10-13T09:05:56.724Z,58.10
2022-10-13T09:08:54.319Z,56.70
2022-10-13T09:11:47.555Z,56.00
2022-10-13T09:14:39.083Z,56.00
2022-10-13T09:17:30.015Z,55.90
2022-10-13T09:20:23.432Z,55.10
2022-10-13T09:23:21.092Z,54.70
2022-10-13T09:26:18.553Z,53.70
2022-10-13T09:29:15.552Z,55.00
2022-10-13T09:32:21.874Z,54.40
2022-10-13T09:35:23.507Z,53.00
2022-10-13T09:38:16.924Z,52.50
2022-10-13T09:41:15.851Z,52.40
2022-10-13T09:44:15.457Z,51.50
2022-10-13T09:47:06.153Z,51.20
2022-10-13T09:50:18.245Z,51.30
2022-10-13T09:53:22.613Z,49.80
2022-10-13T09:56:20.893Z,50.00
2022-10-13T09:59:20.953Z,50.10
2022-10-13T10:02:24.989Z,49.70
2022-10-13T10:05:25.581Z,49.00
2022-10-13T10:08:33.266Z,48.90
2022-10-13T10:11:29.888Z,48.80
2022-10-13T10:14:26.936Z,48.80
2022-10-13T10:17:24.982Z,48.70
2022-10-13T10:20:34.808Z,48.60
2022-10-13T10:23:40.812Z,48.30
2022-10-13T10:26:44.948Z,48.50
2022-10-13T10:29:49.477Z,48.80
2022-10-13T10:32:45.604Z,48.80
2022-10-13T10:35:46.154Z,49.50
2022-10-13T10:38:45.997Z,49.10
2022-10-13T10:41:42.906Z,49.10
2022-10-13T10:44:36.924Z,48.30
2022-10-13T10:47:33.607Z,48.10
2022-10-13T10:50:24.276Z,48.00
2022-10-13T10:53:27.689Z,48.10
2022-10-13T10:56:25.871Z,47.70
2022-10-13T10:59:32.621Z,47.50
2022-10-13T11:02:45.231Z,47.50
2022-10-13T11:06:00.575Z,47.00
2022-10-13T11:08:51.606Z,46.70
2022-10-13T11:11:43.500Z,46.90
2022-10-13T11:14:36.613Z,47.00
2022-10-13T11:17:32.006Z,47.30
2022-10-13T11:20:59.363Z,47.30
2022-10-13T11:23:50.859Z,47.10
2022-10-13T11:26:45.041Z,47.60
2022-10-13T11:29:56.548Z,47.40
2022-10-13T11:32:57.959Z,47.20
2022-10-13T11:35:47.331Z,47.40
2022-10-13T11:38:40.073Z,47.50
2022-10-13T11:41:37.897Z,47.40
2022-10-13T11:44:34.133Z,47.30
2022-10-13T11:47:55.494Z,47.30
2022-10-13T11:50:53.456Z,47.20
2022-10-13T11:53:52.201Z,47.20
2022-10-13T11:56:49.544Z,47.20
2022-10-13T11:59:38.909Z,47.10
2022-10-13T12:02:29.368Z,47.10
2022-10-13T12:05:26.485Z,47.20
2022-10-13T12:08:16.968Z,47.30
2022-10-13T12:11:10.313Z,47.30
2022-10-13T12:14:01.317Z,47.50
2022-10-13T12:16:57.713Z,47.80
2022-10-13T12:19:48.267Z,48.00
2022-10-13T12:22:48.557Z,48.10
2022-10-13T12:25:37.953Z,48.30
2022-10-13T12:28:30.830Z,48.40
2022-10-13T12:31:24.023Z,48.60
2022-10-13T12:34:22.361Z,48.50
2022-10-13T12:37:22.958Z,48.50
2022-10-13T12:40:17.018Z,48.50
2022-10-13T12:43:06.612Z,48.60
2022-10-13T12:45:56.021Z,48.50
2022-10-13T12:48:45.426Z,48.40
2022-10-13T12:51:35.582Z,48.50
2022-10-13T12:54:29.267Z,48.70
2022-10-13T12:57:24.060Z,48.70
2022-10-13T13:00:23.738Z,48.80
2022-10-13T13:03:27.965Z,48.90
2022-10-13T13:06:33.437Z,49.00
2022-10-13T13:09:34.332Z,48.90
2022-10-13T13:12:28.810Z,49.00
2022-10-13T13:15:37.752Z,48.90
2022-10-13T13:18:39.727Z,48.90
2022-10-13T13:21:29.049Z,48.90
2022-10-13T13:24:28.847Z,48.80
2022-10-13T13:27:39.711Z,48.90
2022-10-13T13:30:29.997Z,49.10
2022-10-13T13:33:19.311Z,49.10
2022-10-13T13:36:17.565Z,49.10
2022-10-13T13:39:18.289Z,49.30
2022-10-13T13:42:12.464Z,49.30
2022-10-13T13:45:03.854Z,49.20
2022-10-13T13:47:56.754Z,49.40
2022-10-13T13:50:49.100Z,49.50
2022-10-13T13:53:38.866Z,49.60
2022-10-13T13:56:28.280Z,49.70
2022-10-13T13:59:17.636Z,49.70
2022-10-13T14:02:14.164Z,49.70
2022-10-13T14:05:03.975Z,50.50
2022-10-13T14:07:57.735Z,49.90
2022-10-13T14:10:47.280Z,49.90
2022-10-13T14:13:40.450Z,49.90
2022-10-13T14:16:30.306Z,49.80
2022-10-13T14:19:21.785Z,49.80
2022-10-13T14:22:11.413Z,49.80
2022-10-13T14:25:00.789Z,49.60
2022-10-13T14:27:50.265Z,49.60
2022-10-13T14:30:42.063Z,49.60
2022-10-13T14:33:31.493Z,49.60
2022-10-13T14:36:22.988Z,49.60
2022-10-13T14:39:12.635Z,49.60
2022-10-13T14:42:02.065Z,49.60
2022-10-13T14:44:51.563Z,49.70
2022-10-13T14:47:41.202Z,49.70
2022-10-13T14:50:30.555Z,49.80
2022-10-13T14:53:21.269Z,49.80
2022-10-13T14:56:24.134Z,49.80
2022-10-13T14:59:14.343Z,50.30
2022-10-13T15:02:04.377Z,50.00
2022-10-13T15:04:53.759Z,50.10
2022-10-13T15:07:43.033Z,50.10
2022-10-13T15:10:33.750Z,50.20
2022-10-13T15:13:23.657Z,50.50
2022-10-13T15:16:18.485Z,50.30
2022-10-13T15:19:07.921Z,50.60
2022-10-13T15:21:57.247Z,50.50
2022-10-13T15:24:46.746Z,50.50
2022-10-13T15:27:41.893Z,50.60
2022-10-13T15:30:34.986Z,50.70
2022-10-13T15:33:31.265Z,50.70
2022-10-13T15:36:22.218Z,50.70
2022-10-13T15:39:12.624Z,50.70
2022-10-13T15:42:01.987Z,50.90
2022-10-13T15:45:10.497Z,50.70
2022-10-13T15:48:00.858Z,50.80
2022-10-13T15:50:50.441Z,50.80
2022-10-13T15:53:39.769Z,50.90
2022-10-13T15:56:29.290Z,50.90
2022-10-13T15:59:18.841Z,51.00
2022-10-13T16:02:11.016Z,51.00
2022-10-13T16:05:04.897Z,51.20
2022-10-13T16:07:54.384Z,51.10
2022-10-13T16:10:44.655Z,51.10
2022-10-13T16:13:37.953Z,51.30
2022-10-13T16:16:28.120Z,51.20
2022-10-13T16:19:18.865Z,51.30
2022-10-13T16:22:08.226Z,51.30
2022-10-13T16:24:57.732Z,51.40
2022-10-13T16:27:47.137Z,51.40
2022-10-13T16:30:37.959Z,51.50
2022-10-13T16:33:27.353Z,51.60
2022-10-13T16:36:20.366Z,51.60
2022-10-13T16:39:13.351Z,51.70
2022-10-13T16:42:02.702Z,51.60
2022-10-13T16:44:52.044Z,51.70
2022-10-13T16:47:41.484Z,51.70
2022-10-13T16:50:30.793Z,51.80
2022-10-13T16:53:21.585Z,51.80
2022-10-13T16:56:11.207Z,52.00
2022-10-13T16:59:03.186Z,51.90
2022-10-13T17:01:52.529Z,51.90
2022-10-13T17:04:41.871Z,52.00
2022-10-13T17:07:31.206Z,52.00
2022-10-13T17:10:22.181Z,52.10
2022-10-13T17:13:11.515Z,52.10
2022-10-13T17:16:01.163Z,52.10
2022-10-13T17:18:50.473Z,52.20
2022-10-13T17:21:39.950Z,52.30
2022-10-13T17:24:30.968Z,52.20
2022-10-13T17:27:21.927Z,52.90
2022-10-13T17:30:12.950Z,52.40
2022-10-13T17:33:04.500Z,52.40
2022-10-13T17:35:54.251Z,52.50
2022-10-13T17:38:44.974Z,52.50
2022-10-13T17:41:34.443Z,52.70
2022-10-13T17:44:25.316Z,52.70
2022-10-13T17:47:14.725Z,52.90
2022-10-13T17:50:04.182Z,52.90
2022-10-13T17:52:53.854Z,53.00
2022-10-13T17:55:43.282Z,53.00
2022-10-13T17:58:37.163Z,53.10
2022-10-13T18:01:31.640Z,53.20
2022-10-13T18:04:22.386Z,53.40
2022-10-13T18:07:11.797Z,53.30
2022-10-13T18:10:01.117Z,53.40
2022-10-13T18:12:50.478Z,53.50
2022-10-13T18:15:40.885Z,53.60
2022-10-13T18:18:31.690Z,53.60
2022-10-13T18:21:24.136Z,53.50
2022-10-13T18:24:14.315Z,53.60
2022-10-13T18:27:03.652Z,53.60
2022-10-13T18:29:53.293Z,53.70
2022-10-13T18:32:44.195Z,53.80
2022-10-13T18:35:35.983Z,53.90
2022-10-13T18:38:25.492Z,54.00
2022-10-13T18:41:16.112Z,53.90
2022-10-13T18:44:06.568Z,54.00
2022-10-13T18:46:56.950Z,54.00
2022-10-13T18:49:46.256Z,54.10
2022-10-13T18:52:37.007Z,53.90
2022-10-13T18:55:26.549Z,54.00
2022-10-13T18:58:15.939Z,54.00
2022-10-13T19:01:07.516Z,54.10
2022-10-13T19:03:57.674Z,54.10
2022-10-13T19:06:47.034Z,54.10
2022-10-13T19:09:37.972Z,54.20
2022-10-13T19:12:27.340Z,54.40
2022-10-13T19:15:19.159Z,54.30
2022-10-13T19:18:08.707Z,54.30
2022-10-13T19:20:58.262Z,54.40
2022-10-13T19:23:47.813Z,54.30
2022-10-13T19:26:44.845Z,54.40
2022-10-13T19:29:34.282Z,54.50
2022-10-13T19:32:24.148Z,54.40
2022-10-13T19:35:14.126Z,54.50
2022-10-13T19:38:03.456Z,54.50
2022-10-13T19:40:53.481Z,54.50
2022-10-13T19:43:44.283Z,54.50
2022-10-13T19:46:36.098Z,54.70
2022-10-13T19:49:26.572Z,54.70
2022-10-13T19:52:15.983Z,54.70
2022-10-13T19:55:06.176Z,54.70
2022-10-13T19:57:55.525Z,54.70
2022-10-13T20:00:47.683Z,54.80
2022-10-13T20:03:37.228Z,55.00
2022-10-13T20:06:26.633Z,54.90
2022-10-13T20:09:16.317Z,55.00
2022-10-13T20:12:07.735Z,55.00
2022-10-13T20:15:03.029Z,55.10
2022-10-13T20:17:53.797Z,55.10
2022-10-13T20:20:43.427Z,55.30
2022-10-13T20:23:33.265Z,55.40
2022-10-13T20:26:23.023Z,55.50
2022-10-13T20:29:12.530Z,55.50
2022-10-13T20:32:02.018Z,55.80
2022-10-13T20:34:53.615Z,55.90
2022-10-13T20:37:43.003Z,56.00
2022-10-13T20:40:33.034Z,56.20
2022-10-13T20:43:25.799Z,56.30
2022-10-13T20:46:16.234Z,56.40
2022-10-13T20:49:11.072Z,56.70
2022-10-13T20:52:03.100Z,56.80
2022-10-13T20:54:52.474Z,57.00
2022-10-13T20:57:42.736Z,57.10
2022-10-13T21:00:32.047Z,57.10
2022-10-13T21:03:22.680Z,57.20
2022-10-13T21:06:14.375Z,57.40
2022-10-13T21:09:05.839Z,57.30
2022-10-13T21:11:55.159Z,57.40
2022-10-13T21:14:46.035Z,57.20
2022-10-13T21:17:36.876Z,57.30
2022-10-13T21:20:28.767Z,57.30
2022-10-13T21:23:18.106Z,57.40
2022-10-13T21:26:10.413Z,57.40
2022-10-13T21:29:00.505Z,57.40
2022-10-13T21:31:49.969Z,57.40
2022-10-13T21:34:39.351Z,57.50
2022-10-13T21:37:28.643Z,57.50
2022-10-13T21:40:18.369Z,57.60
2022-10-13T21:43:09.057Z,57.70
2022-10-13T21:45:58.392Z,57.70
2022-10-13T21:48:49.175Z,57.70
2022-10-13T21:51:40.591Z,57.90
2022-10-13T21:54:30.015Z,58.00
2022-10-13T21:57:20.187Z,57.90
2022-10-13T22:00:13.353Z,58.00
2022-10-13T22:03:02.720Z,58.10
2022-10-13T22:05:52.111Z,57.90
2022-10-13T22:08:43.896Z,57.80
2022-10-13T22:11:45.462Z,57.80
2022-10-13T22:14:34.913Z,57.80
2022-10-13T22:17:25.817Z,57.80
2022-10-13T22:20:15.335Z,58.00
2022-10-13T22:23:05.503Z,57.90
2022-10-13T22:25:55.412Z,57.80
2022-10-13T22:28:45.147Z,57.90
2022-10-13T22:31:34.777Z,57.80
2022-10-13T22:34:32.616Z,57.80
2022-10-13T22:37:23.020Z,57.70
2022-10-13T22:40:13.513Z,57.60
2022-10-13T22:43:03.099Z,57.60
2022-10-13T22:45:53.387Z,57.50
2022-10-13T22:48:43.321Z,57.50
2022-10-13T22:51:37.305Z,57.40
2022-10-13T22:54:26.841Z,57.50
2022-10-13T22:57:18.498Z,57.40
2022-10-13T23:00:10.736Z,57.40
2022-10-13T23:03:04.127Z,57.50
2022-10-13T23:05:53.609Z,57.50
2022-10-13T23:08:44.518Z,57.50
2022-10-13T23:11:34.085Z,57.70
2022-10-13T23:14:23.808Z,57.70
2022-10-13T23:17:13.232Z,57.90
2022-10-13T23:20:03.081Z,57.90
2022-10-13T23:22:52.491Z,58.10
2022-10-13T23:25:43.310Z,58.10
2022-10-13T23:28:33.620Z,58.20
2022-10-13T23:31:23.607Z,58.40
2022-10-13T23:34:13.040Z,58.40
2022-10-13T23:37:02.470Z,58.60
2022-10-13T23:39:51.956Z,58.70
2022-10-13T23:42:42.758Z,58.70
2022-10-13T23:45:32.191Z,58.90
2022-10-13T23:48:21.575Z,59.00
2022-10-13T23:51:13.760Z,59.10
2022-10-13T23:54:03.156Z,59.10
2022-10-13T23:56:52.609Z,59.10
2022-10-13T23:59:43.419Z,59.00
